NMB238 FYWH-FHSH
Flight info
| Callsign | NMB238 |
|---|---|
| Flight time | N/A |
| Altitude | 30000 |
| Route | VEDRY UN182 ETUDU DCT 21S010E 1930S00500E 18S000E DCT SH |
| Aircraft | A320/M-SDE3FGHIRWY/LB1 |
Departure
| Time | N/A |
|---|---|
| Airport | Hosea Kutako International Airport (FYWH) |
Arrival
| Time | 2026-05-04 16:23 |
|---|---|
| Airport | Saint Helena International Airport (FHSH) |
| Time | Latitude | Longitude | Altitude | Speed | Heading |
|---|---|---|---|---|---|
| 2026-05-04 15:10 | -18.58149 | 1.87619 | 38149 ft | 419 kts | 286° |
| 2026-05-04 15:11 | -18.57256 | 1.84696 | 38146 ft | 419 kts | 286° |
| 2026-05-04 15:11 | -18.55468 | 1.78796 | 38159 ft | 420 kts | 286° |
| 2026-05-04 15:12 | -18.53692 | 1.72932 | 38151 ft | 420 kts | 286° |
| 2026-05-04 15:12 | -18.51922 | 1.67125 | 38161 ft | 419 kts | 286° |
| 2026-05-04 15:13 | -18.50127 | 1.61285 | 38155 ft | 419 kts | 286° |
| 2026-05-04 15:13 | -18.48334 | 1.55442 | 38151 ft | 419 kts | 286° |
| 2026-05-04 15:14 | -18.46542 | 1.49599 | 38148 ft | 419 kts | 285° |
| 2026-05-04 15:14 | -18.44756 | 1.43740 | 38145 ft | 421 kts | 286° |
| 2026-05-04 15:15 | -18.42960 | 1.37877 | 38148 ft | 421 kts | 286° |
| 2026-05-04 15:15 | -18.41153 | 1.32022 | 38154 ft | 420 kts | 287° |
| 2026-05-04 15:16 | -18.38450 | 1.23243 | 38156 ft | 421 kts | 287° |
| 2026-05-04 15:17 | -18.35746 | 1.14448 | 38144 ft | 421 kts | 286° |
| 2026-05-04 15:17 | -18.33322 | 1.06616 | 38162 ft | 423 kts | 287° |
| 2026-05-04 15:18 | -18.31492 | 1.00742 | 38156 ft | 422 kts | 287° |
| 2026-05-04 15:19 | -18.28783 | 0.91958 | 38145 ft | 421 kts | 287° |
| 2026-05-04 15:19 | -18.26060 | 0.83164 | 38141 ft | 421 kts | 287° |
| 2026-05-04 15:20 | -18.24241 | 0.77313 | 38144 ft | 422 kts | 286° |
| 2026-05-04 15:20 | -18.22408 | 0.71452 | 38134 ft | 422 kts | 285° |
| 2026-05-04 15:21 | -18.20587 | 0.65591 | 38133 ft | 421 kts | 286° |
| 2026-05-04 15:22 | -18.17851 | 0.56813 | 38132 ft | 421 kts | 287° |
| 2026-05-04 15:22 | -18.15102 | 0.48045 | 38133 ft | 421 kts | 287° |
| 2026-05-04 15:23 | -18.13268 | 0.42194 | 38141 ft | 421 kts | 287° |
| 2026-05-04 15:23 | -18.11444 | 0.36333 | 38127 ft | 422 kts | 287° |
| 2026-05-04 15:24 | -18.07746 | 0.24614 | 38141 ft | 423 kts | 287° |
| 2026-05-04 15:25 | -18.05908 | 0.18765 | 38133 ft | 421 kts | 287° |
| 2026-05-04 15:26 | -18.03160 | 0.10006 | 38130 ft | 420 kts | 287° |
| 2026-05-04 15:26 | -18.00391 | 0.01276 | 38142 ft | 420 kts | 287° |
| 2026-05-04 15:27 | -17.97413 | -0.07403 | 38119 ft | 422 kts | 289° |
| 2026-05-04 15:28 | -17.94232 | -0.16037 | 38109 ft | 424 kts | 289° |
| 2026-05-04 15:29 | -17.91097 | -0.24713 | 38110 ft | 423 kts | 288° |
| 2026-05-04 15:30 | -17.83779 | -0.44954 | 38127 ft | 426 kts | 290° |
| 2026-05-04 15:31 | -17.80618 | -0.53688 | 38130 ft | 426 kts | 289° |
| 2026-05-04 15:32 | -17.75356 | -0.68225 | 38121 ft | 425 kts | 289° |
| 2026-05-04 15:34 | -17.70105 | -0.82650 | 38109 ft | 423 kts | 289° |
| 2026-05-04 15:34 | -17.66940 | -0.91298 | 38111 ft | 424 kts | 289° |
| 2026-05-04 15:35 | -17.63768 | -0.99959 | 38115 ft | 425 kts | 289° |
| 2026-05-04 15:36 | -17.60600 | -1.08638 | 38122 ft | 423 kts | 289° |
| 2026-05-04 15:36 | -17.58492 | -1.14392 | 38113 ft | 424 kts | 289° |
| 2026-05-04 15:37 | -17.56375 | -1.20174 | 38114 ft | 425 kts | 289° |
| 2026-05-04 15:37 | -17.54257 | -1.25954 | 38117 ft | 425 kts | 289° |
| 2026-05-04 15:38 | -17.52117 | -1.31743 | 38121 ft | 427 kts | 289° |
| 2026-05-04 15:38 | -17.49974 | -1.37535 | 38125 ft | 426 kts | 290° |
| 2026-05-04 15:39 | -17.47846 | -1.43334 | 38120 ft | 426 kts | 290° |
| 2026-05-04 15:40 | -17.44649 | -1.52014 | 38124 ft | 426 kts | 289° |
| 2026-05-04 15:40 | -17.42510 | -1.57806 | 38120 ft | 426 kts | 289° |
| 2026-05-04 15:41 | -17.40373 | -1.63606 | 38117 ft | 430 kts | 289° |
| 2026-05-04 15:41 | -17.38237 | -1.69378 | 38116 ft | 427 kts | 289° |
| 2026-05-04 15:42 | -17.36088 | -1.75167 | 38118 ft | 426 kts | 289° |
| 2026-05-04 15:42 | -17.33938 | -1.80959 | 38111 ft | 427 kts | 289° |
| 2026-05-04 15:43 | -17.31787 | -1.86758 | 38100 ft | 428 kts | 289° |
| 2026-05-04 15:43 | -17.29648 | -1.92543 | 38102 ft | 427 kts | 289° |
| 2026-05-04 15:44 | -17.27502 | -1.98325 | 38107 ft | 426 kts | 289° |
| 2026-05-04 15:44 | -17.25351 | -2.04093 | 38107 ft | 425 kts | 290° |
| 2026-05-04 15:45 | -17.23189 | -2.09852 | 38098 ft | 426 kts | 290° |
| 2026-05-04 15:45 | -17.21040 | -2.15593 | 38089 ft | 423 kts | 290° |
| 2026-05-04 15:46 | -17.18905 | -2.21336 | 38090 ft | 424 kts | 290° |
| 2026-05-04 15:46 | -17.16768 | -2.27073 | 38084 ft | 424 kts | 290° |
| 2026-05-04 15:47 | -17.14619 | -2.32812 | 38078 ft | 425 kts | 289° |
| 2026-05-04 15:47 | -17.12477 | -2.38545 | 38074 ft | 423 kts | 290° |
| 2026-05-04 15:48 | -17.10332 | -2.44271 | 38077 ft | 423 kts | 290° |
| 2026-05-04 15:48 | -17.07094 | -2.52890 | 38087 ft | 426 kts | 290° |
| 2026-05-04 15:49 | -17.04925 | -2.58651 | 38094 ft | 426 kts | 290° |
| 2026-05-04 15:49 | -17.02762 | -2.64414 | 38092 ft | 426 kts | 290° |
| 2026-05-04 15:50 | -17.00611 | -2.70124 | 38091 ft | 425 kts | 290° |
| 2026-05-04 15:50 | -16.98454 | -2.75862 | 38092 ft | 422 kts | 290° |
| 2026-05-04 15:51 | -16.96292 | -2.81569 | 38077 ft | 423 kts | 290° |
| 2026-05-04 15:51 | -16.94130 | -2.87290 | 38079 ft | 423 kts | 290° |
| 2026-05-04 15:52 | -16.91967 | -2.93005 | 38080 ft | 423 kts | 290° |
| 2026-05-04 15:52 | -16.89807 | -2.98722 | 38082 ft | 423 kts | 290° |
| 2026-05-04 15:53 | -16.87646 | -3.04458 | 38087 ft | 425 kts | 290° |
| 2026-05-04 15:53 | -16.85476 | -3.10195 | 38095 ft | 425 kts | 290° |
| 2026-05-04 15:54 | -16.83292 | -3.15933 | 38085 ft | 426 kts | 290° |
| 2026-05-04 15:54 | -16.81102 | -3.21686 | 38088 ft | 426 kts | 290° |
| 2026-05-04 15:55 | -16.78926 | -3.27427 | 38092 ft | 425 kts | 290° |
| 2026-05-04 15:55 | -16.76741 | -3.33159 | 38087 ft | 426 kts | 290° |
| 2026-05-04 15:56 | -16.74557 | -3.38903 | 38097 ft | 426 kts | 290° |
| 2026-05-04 15:56 | -16.72362 | -3.44662 | 38097 ft | 428 kts | 291° |
| 2026-05-04 15:57 | -16.70161 | -3.50424 | 38097 ft | 428 kts | 290° |
| 2026-05-04 15:57 | -16.67960 | -3.56182 | 38098 ft | 427 kts | 291° |
| 2026-05-04 15:58 | -16.65756 | -3.61926 | 38101 ft | 427 kts | 291° |
| 2026-05-04 15:58 | -16.64650 | -3.64809 | 37538 ft | 430 kts | 291° |
| 2026-05-04 15:58 | -16.63547 | -3.67688 | 37099 ft | 424 kts | 291° |
| 2026-05-04 15:59 | -16.62465 | -3.70514 | 36505 ft | 414 kts | 290° |
| 2026-05-04 15:59 | -16.61412 | -3.73264 | 36084 ft | 404 kts | 290° |
| 2026-05-04 15:59 | -16.60375 | -3.75979 | 35612 ft | 402 kts | 290° |
| 2026-05-04 15:59 | -16.59347 | -3.78683 | 35149 ft | 401 kts | 290° |
| 2026-05-04 16:00 | -16.58321 | -3.81376 | 34700 ft | 398 kts | 290° |
| 2026-05-04 16:00 | -16.57294 | -3.84055 | 34255 ft | 398 kts | 290° |
| 2026-05-04 16:00 | -16.56264 | -3.86720 | 33817 ft | 396 kts | 290° |
| 2026-05-04 16:00 | -16.55239 | -3.89373 | 33382 ft | 393 kts | 290° |
| 2026-05-04 16:01 | -16.54227 | -3.91999 | 32947 ft | 390 kts | 290° |
| 2026-05-04 16:01 | -16.53237 | -3.94578 | 32514 ft | 387 kts | 289° |
| 2026-05-04 16:01 | -16.52240 | -3.97173 | 32066 ft | 384 kts | 289° |
| 2026-05-04 16:01 | -16.51251 | -3.99746 | 31641 ft | 381 kts | 289° |
| 2026-05-04 16:02 | -16.50268 | -4.02303 | 31215 ft | 379 kts | 289° |
| 2026-05-04 16:02 | -16.49294 | -4.04840 | 30797 ft | 376 kts | 289° |
| 2026-05-04 16:02 | -16.47363 | -4.09864 | 29962 ft | 372 kts | 289° |
| 2026-05-04 16:03 | -16.46400 | -4.12357 | 29554 ft | 370 kts | 289° |
| 2026-05-04 16:03 | -16.45753 | -4.14034 | 29292 ft | 369 kts | 290° |
| 2026-05-04 16:03 | -16.44492 | -4.17298 | 28769 ft | 365 kts | 290° |
| 2026-05-04 16:03 | -16.43852 | -4.18950 | 28492 ft | 363 kts | 289° |
| 2026-05-04 16:04 | -16.42913 | -4.21379 | 28125 ft | 360 kts | 290° |
| 2026-05-04 16:04 | -16.41059 | -4.26176 | 27390 ft | 353 kts | 290° |
| 2026-05-04 16:04 | -16.40143 | -4.28536 | 27023 ft | 350 kts | 290° |
| 2026-05-04 16:05 | -16.39239 | -4.30877 | 26663 ft | 347 kts | 289° |
| 2026-05-04 16:05 | -16.38352 | -4.33168 | 26314 ft | 344 kts | 290° |
| 2026-05-04 16:05 | -16.36565 | -4.37765 | 25592 ft | 341 kts | 290° |
| 2026-05-04 16:06 | -16.35680 | -4.40044 | 25229 ft | 339 kts | 290° |
| 2026-05-04 16:06 | -16.33044 | -4.46834 | 24094 ft | 335 kts | 290° |
| 2026-05-04 16:07 | -16.32174 | -4.49075 | 23713 ft | 333 kts | 290° |
| 2026-05-04 16:07 | -16.29523 | -4.55914 | 22518 ft | 370 kts | 290° |
| 2026-05-04 16:08 | -16.28528 | -4.58492 | 22062 ft | 397 kts | 290° |
| 2026-05-04 16:08 | -16.25334 | -4.66692 | 20605 ft | 410 kts | 290° |
| 2026-05-04 16:09 | -16.23197 | -4.72174 | 19611 ft | 409 kts | 290° |
| 2026-05-04 16:09 | -16.21072 | -4.77617 | 18625 ft | 405 kts | 290° |
| 2026-05-04 16:10 | -16.18964 | -4.83029 | 17651 ft | 401 kts | 290° |
| 2026-05-04 16:11 | -16.15838 | -4.91040 | 16185 ft | 395 kts | 291° |
| 2026-05-04 16:11 | -16.14812 | -4.93683 | 15712 ft | 393 kts | 291° |
| 2026-05-04 16:12 | -16.11764 | -5.01497 | 14652 ft | 365 kts | 291° |
| 2026-05-04 16:12 | -16.09001 | -5.08543 | 12992 ft | 334 kts | 291° |
| 2026-05-04 16:13 | -16.07292 | -5.12923 | 12209 ft | 325 kts | 291° |
| 2026-05-04 16:13 | -16.05577 | -5.17284 | 11408 ft | 326 kts | 292° |
| 2026-05-04 16:14 | -16.03893 | -5.21554 | 10895 ft | 314 kts | 292° |
| 2026-05-04 16:14 | -16.02243 | -5.25755 | 9878 ft | 307 kts | 292° |
| 2026-05-04 16:15 | -15.99864 | -5.31820 | 8722 ft | 304 kts | 293° |
| 2026-05-04 16:16 | -15.98286 | -5.35841 | 8001 ft | 295 kts | 294° |
| 2026-05-04 16:16 | -15.95957 | -5.41795 | 6883 ft | 297 kts | 293° |
| 2026-05-04 16:17 | -15.94102 | -5.45667 | 6129 ft | 304 kts | 304° |
| 2026-05-04 16:18 | -15.90754 | -5.51042 | 4762 ft | 291 kts | 303° |
| 2026-05-04 16:18 | -15.89700 | -5.52786 | 4360 ft | 277 kts | 304° |
| 2026-05-04 16:19 | -15.86870 | -5.57382 | 3940 ft | 231 kts | 308° |
| 2026-05-04 16:19 | -15.85198 | -5.60121 | 3635 ft | 224 kts | 303° |
| 2026-05-04 16:20 | -15.85721 | -5.64183 | 2918 ft | 193 kts | 206° |
| 2026-05-04 16:20 | -15.87985 | -5.64781 | 2710 ft | 150 kts | 173° |
| 2026-05-04 16:21 | -15.90998 | -5.64748 | 1951 ft | 139 kts | 171° |
| 2026-05-04 16:22 | -15.92926 | -5.64667 | 1452 ft | 140 kts | 174° |
| 2026-05-04 16:22 | -15.95784 | -5.64593 | 1025 ft | 111 kts | 178° |
| 2026-05-04 16:23 | -15.96545 | -5.64576 | 1009 ft | 23 kts | 178° |